| |
Missouri Department of Transportation

Social Media Facebook Twitter Flickr Blog YouTube RSS

Current AWOS Information

 
AWOS Home - General Info for all Airports
Current AWOS for all Airports - Current METAR for all Airports
Glossary - Disclaimer - Other Links


LEBANON--FLOYD W JONES LEBANON--KLBO
 
Recent AWOS History
 
07/25/14     08:42 AM CDT      13:42 GMT
Air Temperature 70°F (21°C ) 1st Cloud Layer Clear
Dew Point 61°F (16°C) 2nd Cloud Layer  
Barometric Pressure 30.05 in Hg. 3rd Cloud Layer  
Wind Speed 11 mph (10 knots) Density Altitude  
Peak Wind Gusts   Variable Wind Directions  
Wind Direction Quadrant(160°) Variable Visibility  
Visibility 10 statute miles  

Thunderstorm and Precipitation Identification: 
Thunderstorm Remarks: 

Current METAR Record: METAR KLBO 251335Z AUTO 16010KT 10SM CLR 21/16 A3005 RMK AO2

 

 

 

About Us
How Do I...
Contact Us
Missouri Department of Transportation
Central Office
105 W. Capitol Avenue
Jefferson City, MO 65102
1-888-ASK-MODOT (275-6636)
1-866-831-6277 (Motor Carrier Services)
Drivers License Offices
horz_bar
| | |
Missouri State Government
© 2013 Missouri Department of Transportation. All Rights Reserved.   Privacy Policy.
 
 
 
 
RSS FeedYoutubeBlogFlickrTwitter Facebook